Time;durP1;ratioP1;P1;durP2;ratioP2;P2;SDS_P1;SDS_P2;PMS_P1;PMS_P2;Temp;Humidity;BMP_temperature;BMP_pressure;BME280_temperature;BME280_humidity;BME280_pressure;Samples;Min_cycle;Max_cycle;Signal;HPM_P1;HPM_P2
2021/03/24 00:01:57;;;;;;;;;;;10.10;76.70;;;;;;4380051;32;34817;-75
2021/03/24 00:04:27;;;;;;;;;;;10.10;76.70;;;;;;4393472;32;20014;-74
2021/03/24 00:06:57;;;;;;;;;;;10.00;76.70;;;;;;4392626;32;21543;-75
2021/03/24 00:09:31;;;;;;;;;;;10.00;76.90;;;;;;4380877;32;20298;-75
2021/03/24 00:12:01;;;;;;;;;;;10.00;77.00;;;;;;4406588;32;34867;-74
2021/03/24 00:14:33;;;;;;;;;;;9.90;77.00;;;;;;4393667;32;20023;-74
2021/03/24 00:17:06;;;;;;;;;;;9.90;77.00;;;;;;4393821;32;20003;-74
2021/03/24 00:19:35;;;;;;;;;;;9.90;77.00;;;;;;4406171;32;40761;-74
2021/03/24 00:22:07;;;;;;;;;;;9.90;77.20;;;;;;4379928;32;41339;-75
2021/03/24 00:24:46;;;;;;;;;;;9.80;77.30;;;;;;4407120;32;20047;-74
2021/03/24 00:27:18;;;;;;;;;;;9.80;77.20;;;;;;4392364;32;44892;-74
2021/03/24 00:29:50;;;;;;;;;;;9.80;77.30;;;;;;4379473;32;39961;-74
2021/03/24 00:32:23;;;;;;;;;;;9.90;77.10;;;;;;4392000;32;43966;-74
2021/03/24 00:34:52;;;;;;;;;;;9.90;77.10;;;;;;4407075;32;20066;-74
2021/03/24 00:37:29;;;;;;;;;;;9.80;77.00;;;;;;4393768;32;20041;-74
2021/03/24 00:39:59;;;;;;;;;;;9.90;76.90;;;;;;4379471;32;37565;-74
2021/03/24 00:42:36;;;;;;;;;;;9.90;76.70;;;;;;4405581;32;34395;-75
2021/03/24 00:45:07;;;;;;;;;;;9.80;76.50;;;;;;4379574;32;37908;-74
2021/03/24 00:47:39;;;;;;;;;;;9.80;76.30;;;;;;4392134;32;40502;-74
2021/03/24 00:50:12;;;;;;;;;;;9.80;76.30;;;;;;4392641;32;20051;-75
2021/03/24 00:52:51;;;;;;;;;;;9.80;76.30;;;;;;4393369;32;20071;-74
2021/03/24 00:55:26;;;;;;;;;;;9.80;76.50;;;;;;4392441;32;37345;-74
2021/03/24 00:57:55;;;;;;;;;;;9.80;76.30;;;;;;4391919;32;43443;-74
2021/03/24 01:00:30;;;;;;;;;;;9.70;76.40;;;;;;4379738;32;25744;-74
2021/03/24 01:03:08;;;;;;;;;;;9.70;76.40;;;;;;4406050;32;20082;-74
2021/03/24 01:05:41;;;;;;;;;;;9.70;76.30;;;;;;4391984;32;44011;-74
2021/03/24 01:08:21;;;;;;;;;;;9.70;76.40;;;;;;4391934;32;41011;-74
2021/03/24 01:11:00;;;;;;;;;;;9.60;76.30;;;;;;4380586;32;19996;-74
2021/03/24 01:13:36;;;;;;;;;;;9.60;76.40;;;;;;4405453;32;43644;-74
2021/03/24 01:16:06;;;;;;;;;;;9.60;76.30;;;;;;4391559;32;43682;-74
2021/03/24 01:18:38;;;;;;;;;;;9.60;76.60;;;;;;4393110;32;20063;-74
2021/03/24 01:21:08;;;;;;;;;;;9.50;76.70;;;;;;4392275;32;19991;-74
2021/03/24 01:23:40;;;;;;;;;;;9.50;76.60;;;;;;4392870;32;20014;-74
2021/03/24 01:26:16;;;;;;;;;;;9.50;76.50;;;;;;4392580;32;28040;-74
2021/03/24 01:28:46;;;;;;;;;;;9.50;76.40;;;;;;4405381;32;43298;-74
2021/03/24 01:31:24;;;;;;;;;;;9.50;76.40;;;;;;4392954;32;20016;-74
2021/03/24 01:33:56;;;;;;;;;;;9.40;76.60;;;;;;4392786;32;20396;-74
2021/03/24 01:36:32;;;;;;;;;;;9.40;76.50;;;;;;4392032;32;43897;-74
2021/03/24 01:39:02;;;;;;;;;;;9.40;76.50;;;;;;4391375;32;45299;-74
2021/03/24 01:41:35;;;;;;;;;;;9.40;76.70;;;;;;4380293;32;20341;-74
2021/03/24 01:44:05;;;;;;;;;;;9.40;76.60;;;;;;4380092;32;20318;-74
2021/03/24 01:46:44;;;;;;;;;;;9.40;76.60;;;;;;4392676;32;24655;-74
2021/03/24 01:49:20;;;;;;;;;;;9.40;76.70;;;;;;4380159;32;20040;-75
2021/03/24 01:51:56;;;;;;;;;;;9.40;76.80;;;;;;4392709;32;20083;-74
2021/03/24 01:54:36;;;;;;;;;;;9.30;76.70;;;;;;4392989;32;20033;-74
2021/03/24 01:57:15;;;;;;;;;;;9.30;76.70;;;;;;4393185;32;20008;-74
2021/03/24 01:59:48;;;;;;;;;;;9.30;76.70;;;;;;4378815;32;43939;-74
2021/03/24 02:02:21;;;;;;;;;;;9.30;76.80;;;;;;4394766;32;20089;-74
2021/03/24 02:04:56;;;;;;;;;;;9.30;77.60;;;;;;4382197;32;33904;-74
2021/03/24 02:07:31;;;;;;;;;;;9.30;76.80;;;;;;4395321;32;20457;-74
2021/03/24 02:10:19;;;;;;;;;;;9.20;76.80;;;;;;4395325;32;19996;-74
2021/03/24 02:12:53;;;;;;;;;;;9.30;77.00;;;;;;4407909;32;45008;-74
2021/03/24 02:15:26;;;;;;;;;;;9.20;77.10;;;;;;4395518;32;20008;-74
2021/03/24 02:18:02;;;;;;;;;;;9.20;77.10;;;;;;4409202;32;20089;-74
2021/03/24 02:20:38;;;;;;;;;;;9.20;77.00;;;;;;4396261;32;20368;-74
2021/03/24 02:23:21;;;;;;;;;;;9.20;77.00;;;;;;4395571;32;19996;-74
2021/03/24 02:25:55;;;;;;;;;;;9.20;77.10;;;;;;4408827;32;20012;-74
2021/03/24 02:28:27;;;;;;;;;;;9.10;77.20;;;;;;4409203;32;20061;-74
2021/03/24 02:31:03;;;;;;;;;;;9.10;77.20;;;;;;4382762;32;20457;-74
2021/03/24 02:33:38;;;;;;;;;;;9.10;77.30;;;;;;4408999;32;20000;-74
2021/03/24 02:36:23;;;;;;;;;;;9.10;77.40;;;;;;4408181;32;28587;-74
2021/03/24 02:39:07;;;;;;;;;;;9.00;77.50;;;;;;4394216;32;27767;-74
2021/03/24 02:41:45;;;;;;;;;;;9.00;77.80;;;;;;4395557;32;20055;-75
2021/03/24 02:44:23;;;;;;;;;;;9.00;77.90;;;;;;4395572;32;20041;-74
2021/03/24 02:47:00;;;;;;;;;;;8.90;78.10;;;;;;4394498;32;20075;-74
2021/03/24 02:49:35;;;;;;;;;;;8.90;78.10;;;;;;4394901;32;20075;-74
2021/03/24 02:52:15;;;;;;;;;;;8.90;78.20;;;;;;4381964;32;21813;-75
2021/03/24 02:54:52;;;;;;;;;;;8.90;78.30;;;;;;4395358;32;20021;-74
2021/03/24 02:57:25;;;;;;;;;;;8.80;78.30;;;;;;4381591;32;26368;-74
2021/03/24 03:00:05;;;;;;;;;;;8.90;78.30;;;;;;4382117;32;20404;-74
2021/03/24 03:02:35;;;;;;;;;;;8.80;78.10;;;;;;4381000;32;34861;-75
2021/03/24 03:05:15;;;;;;;;;;;8.90;78.30;;;;;;4395275;32;20020;-74
2021/03/24 03:07:46;;;;;;;;;;;8.80;78.30;;;;;;4394104;32;29225;-74
2021/03/24 03:10:22;;;;;;;;;;;8.80;78.40;;;;;;4380864;32;46791;-74
2021/03/24 03:12:56;;;;;;;;;;;8.70;78.50;;;;;;4392797;32;32205;-74
2021/03/24 03:15:35;;;;;;;;;;;8.70;78.60;;;;;;4408448;32;20027;-74
2021/03/24 03:18:24;;;;;;;;;;;8.70;78.60;;;;;;4394804;32;20405;-75
2021/03/24 03:21:01;;;;;;;;;;;8.70;78.60;;;;;;4369986;32;20004;-74
2021/03/24 03:23:31;;;;;;;;;;;8.70;78.50;;;;;;4381929;32;20071;-74
2021/03/24 03:26:16;;;;;;;;;;;8.70;78.40;;;;;;4394347;32;20355;-74
2021/03/24 03:28:47;;;;;;;;;;;8.70;78.40;;;;;;4406907;32;43583;-74
2021/03/24 03:31:21;;;;;;;;;;;8.70;78.60;;;;;;4394343;32;20467;-75
2021/03/24 03:33:52;;;;;;;;;;;8.60;78.60;;;;;;4381634;32;20069;-74
2021/03/24 03:36:25;;;;;;;;;;;8.60;78.80;;;;;;4382137;32;20054;-74
2021/03/24 03:39:01;;;;;;;;;;;8.60;78.80;;;;;;4381759;32;19999;-75
2021/03/24 03:41:37;;;;;;;;;;;8.60;78.90;;;;;;4394518;32;20008;-75
2021/03/24 03:44:10;;;;;;;;;;;8.60;78.90;;;;;;4381155;32;20306;-75
2021/03/24 03:46:47;;;;;;;;;;;8.60;78.90;;;;;;4407679;32;20079;-75
2021/03/24 03:49:20;;;;;;;;;;;8.60;78.90;;;;;;4393254;32;37528;-75
2021/03/24 03:52:07;;;;;;;;;;;8.50;79.00;;;;;;4394095;32;20058;-74
2021/03/24 03:54:57;;;;;;;;;;;8.50;79.10;;;;;;4382420;32;20055;-75
2021/03/24 03:57:30;;;;;;;;;;;8.50;79.20;;;;;;4393962;32;20007;-75
2021/03/24 04:00:12;;;;;;;;;;;8.40;79.20;;;;;;4407179;32;20012;-75
2021/03/24 04:02:59;;;;;;;;;;;8.40;79.40;;;;;;4407593;32;20018;-75
2021/03/24 04:05:46;;;;;;;;;;;8.30;79.50;;;;;;4405949;32;33692;-75
2021/03/24 04:08:17;;;;;;;;;;;8.40;79.60;;;;;;4379907;32;39053;-75
2021/03/24 04:10:54;;;;;;;;;;;8.30;79.70;;;;;;4392380;32;36565;-75
2021/03/24 04:13:23;;;;;;;;;;;8.30;79.80;;;;;;4392595;32;44644;-74
2021/03/24 04:15:59;;;;;;;;;;;8.30;79.90;;;;;;4393790;32;20075;-74
2021/03/24 04:18:38;;;;;;;;;;;8.30;79.90;;;;;;4381487;32;20043;-74
2021/03/24 04:21:18;;;;;;;;;;;8.30;79.80;;;;;;4393452;32;19999;-74
2021/03/24 04:23:53;;;;;;;;;;;8.30;79.70;;;;;;4405926;32;43364;-74
2021/03/24 04:26:30;;;;;;;;;;;8.30;79.60;;;;;;4380877;32;20004;-75
2021/03/24 04:29:03;;;;;;;;;;;8.40;79.50;;;;;;4407138;32;20007;-74
2021/03/24 04:31:41;;;;;;;;;;;8.40;79.30;;;;;;4393748;32;20027;-74
2021/03/24 04:34:21;;;;;;;;;;;8.40;79.30;;;;;;4394033;32;20384;-74
2021/03/24 04:37:06;;;;;;;;;;;8.40;79.40;;;;;;4407237;32;20045;-75
2021/03/24 04:39:44;;;;;;;;;;;8.30;79.50;;;;;;4380356;32;20007;-74
2021/03/24 04:42:20;;;;;;;;;;;8.30;79.50;;;;;;4407281;32;20047;-74
2021/03/24 04:45:03;;;;;;;;;;;8.30;79.50;;;;;;4392917;32;20008;-75
2021/03/24 04:47:44;;;;;;;;;;;8.30;79.60;;;;;;4393736;32;20016;-74
2021/03/24 04:50:28;;;;;;;;;;;8.20;79.50;;;;;;4407177;32;20051;-74
2021/03/24 04:53:09;;;;;;;;;;;8.30;79.70;;;;;;4407280;32;20008;-74
2021/03/24 04:55:44;;;;;;;;;;;8.20;79.50;;;;;;4380694;32;20027;-74
2021/03/24 04:58:25;;;;;;;;;;;8.20;79.50;;;;;;4380750;32;20054;-74
2021/03/24 05:01:02;;;;;;;;;;;8.20;79.50;;;;;;4380792;32;19999;-74
2021/03/24 05:03:36;;;;;;;;;;;8.20;79.60;;;;;;4393142;32;20027;-74
2021/03/24 05:06:13;;;;;;;;;;;8.20;79.60;;;;;;4406335;32;20007;-75
2021/03/24 05:08:45;;;;;;;;;;;8.20;79.40;;;;;;4392533;32;31031;-74
2021/03/24 05:11:27;;;;;;;;;;;8.20;79.50;;;;;;4379679;32;39609;-74
2021/03/24 05:14:16;;;;;;;;;;;8.20;79.60;;;;;;4391837;32;37045;-74
2021/03/24 05:16:52;;;;;;;;;;;8.10;79.40;;;;;;4391719;32;37483;-74
2021/03/24 05:19:33;;;;;;;;;;;8.10;79.60;;;;;;4405950;32;28324;-74
2021/03/24 05:22:12;;;;;;;;;;;8.10;79.60;;;;;;4392391;32;23034;-74
2021/03/24 05:24:48;;;;;;;;;;;8.10;79.60;;;;;;4378964;32;34806;-76
2021/03/24 05:27:22;;;;;;;;;;;8.10;79.60;;;;;;4392501;32;20903;-75
2021/03/24 05:29:50;;;;;;;;;;;8.00;79.80;;;;;;4405469;32;35447;-74
2021/03/24 05:32:20;;;;;;;;;;;8.00;79.80;;;;;;4405234;32;44052;-74
2021/03/24 05:34:51;;;;;;;;;;;8.00;79.90;;;;;;4379003;32;41287;-74
2021/03/24 05:37:27;;;;;;;;;;;7.90;79.90;;;;;;4407054;32;40101;-74
2021/03/24 05:40:16;;;;;;;;;;;7.90;80.00;;;;;;4395418;32;20045;-74
2021/03/24 05:42:59;;;;;;;;;;;7.90;80.10;;;;;;4395963;32;20031;-75
2021/03/24 05:45:44;;;;;;;;;;;7.90;80.10;;;;;;4395817;32;20042;-75
2021/03/24 05:48:36;;;;;;;;;;;7.90;80.10;;;;;;4395745;32;20045;-75
2021/03/24 05:51:22;;;;;;;;;;;7.90;80.10;;;;;;4395782;32;20004;-74
2021/03/24 05:53:58;;;;;;;;;;;8.00;80.00;;;;;;4409569;32;20007;-74
2021/03/24 05:56:45;;;;;;;;;;;8.00;80.00;;;;;;4382710;32;20464;-74
2021/03/24 05:59:49;;;;;;;;;;;8.00;79.90;;;;;;4409361;32;20385;-74
2021/03/24 06:02:36;;;;;;;;;;;7.90;79.90;;;;;;4370171;32;20005;-75
2021/03/24 06:05:18;;;;;;;;;;;7.90;80.10;;;;;;4408532;32;20007;-74
2021/03/24 06:07:57;;;;;;;;;;;7.90;80.10;;;;;;4381965;32;30855;-74
2021/03/24 06:10:23;;;;;;;;;;;7.90;80.10;;;;;;4394492;32;42782;-74
2021/03/24 06:13:08;;;;;;;;;;;7.90;80.10;;;;;;4395290;32;19996;-75
2021/03/24 06:16:16;;;;;;;;;;;7.90;80.20;;;;;;4395792;32;20038;-75
2021/03/24 06:18:54;;;;;;;;;;;7.90;80.30;;;;;;4331227;33;38056;-74
2021/03/24 06:21:35;;;;;;;;;;;7.90;80.20;;;;;;4385008;32;44987;-74
2021/03/24 06:24:17;;;;;;;;;;;7.90;80.30;;;;;;4394328;32;44357;-74
2021/03/24 06:26:57;;;;;;;;;;;7.90;80.30;;;;;;4408362;32;26617;-74
2021/03/24 06:29:30;;;;;;;;;;;7.90;80.50;;;;;;4408072;32;34443;-75
2021/03/24 06:32:06;;;;;;;;;;;7.80;80.60;;;;;;4395023;32;20000;-74
2021/03/24 06:34:52;;;;;;;;;;;7.80;80.70;;;;;;4408461;32;20056;-74
2021/03/24 06:37:28;;;;;;;;;;;7.80;80.70;;;;;;4395443;32;20405;-74
2021/03/24 06:40:07;;;;;;;;;;;7.80;80.90;;;;;;4395215;32;20472;-75
2021/03/24 06:42:52;;;;;;;;;;;7.80;81.00;;;;;;4394865;32;20012;-75
2021/03/24 06:45:42;;;;;;;;;;;7.80;81.20;;;;;;4408127;32;20011;-74
2021/03/24 06:48:24;;;;;;;;;;;7.70;81.40;;;;;;4365731;32;20114;-74
2021/03/24 06:51:15;;;;;;;;;;;7.70;81.40;;;;;;4394278;32;27955;-74
2021/03/24 06:54:04;;;;;;;;;;;7.70;82.30;;;;;;4394942;32;20018;-74
2021/03/24 06:56:47;;;;;;;;;;;7.70;81.60;;;;;;4395097;32;20064;-74
2021/03/24 06:59:23;;;;;;;;;;;7.70;81.90;;;;;;4394473;32;20008;-74
2021/03/24 07:01:50;;;;;;;;;;;7.60;82.00;;;;;;4381443;32;27954;-74
2021/03/24 07:04:43;;;;;;;;;;;7.70;82.10;;;;;;4381586;32;20004;-74
2021/03/24 07:07:33;;;;;;;;;;;7.70;82.20;;;;;;4330550;33;32344;-75
2021/03/24 07:10:18;;;;;;;;;;;7.60;82.30;;;;;;4358991;32;39394;-74
2021/03/24 07:12:56;;;;;;;;;;;7.60;82.40;;;;;;4393304;32;43639;-74
2021/03/24 07:15:29;;;;;;;;;;;7.60;82.50;;;;;;4408430;32;20064;-75
2021/03/24 07:18:12;;;;;;;;;;;7.60;82.60;;;;;;4394050;32;20020;-74
2021/03/24 07:21:02;;;;;;;;;;;7.60;82.90;;;;;;4408417;32;20071;-74
2021/03/24 07:23:47;;;;;;;;;;;7.60;83.00;;;;;;4407359;32;25150;-75
2021/03/24 07:26:25;;;;;;;;;;;7.50;83.10;;;;;;4393457;32;39635;-74
2021/03/24 07:29:07;;;;;;;;;;;7.50;83.10;;;;;;4407278;32;38198;-74
2021/03/24 07:31:57;;;;;;;;;;;7.50;83.20;;;;;;4394693;32;20022;-75
2021/03/24 07:34:39;;;;;;;;;;;7.50;83.20;;;;;;4359266;32;20004;-75
2021/03/24 07:37:28;;;;;;;;;;;7.60;83.20;;;;;;4382091;32;20055;-75
2021/03/24 07:40:03;;;;;;;;;;;7.60;83.10;;;;;;4393939;32;20023;-75
2021/03/24 07:42:47;;;;;;;;;;;7.60;83.20;;;;;;4408056;32;20026;-74
2021/03/24 07:45:32;;;;;;;;;;;7.60;83.60;;;;;;4381561;32;20043;-75
2021/03/24 07:48:23;;;;;;;;;;;7.70;83.90;;;;;;4407965;32;20046;-75
2021/03/24 07:51:01;;;;;;;;;;;7.60;83.70;;;;;;4394264;32;20008;-75
2021/03/24 07:53:52;;;;;;;;;;;7.70;83.80;;;;;;4394549;32;20020;-75
2021/03/24 07:56:28;;;;;;;;;;;7.70;83.80;;;;;;4407847;32;20046;-75
2021/03/24 07:59:00;;;;;;;;;;;7.80;83.90;;;;;;4392632;32;35862;-75
2021/03/24 08:01:29;;;;;;;;;;;7.80;84.10;;;;;;4394381;32;20008;-75
2021/03/24 08:04:02;;;;;;;;;;;7.80;84.20;;;;;;4393416;32;20011;-75
2021/03/24 08:06:49;;;;;;;;;;;7.80;84.10;;;;;;4381740;32;20355;-75
2021/03/24 08:09:51;;;;;;;;;;;7.90;84.10;;;;;;4407641;32;20091;-76
2021/03/24 08:12:39;;;;;;;;;;;8.00;84.40;;;;;;4407452;32;20007;-76
2021/03/24 08:15:17;;;;;;;;;;;8.00;84.20;;;;;;4407566;32;20008;-76
2021/03/24 08:18:11;;;;;;;;;;;8.00;84.20;;;;;;4407277;32;20088;-76
2021/03/24 08:20:59;;;;;;;;;;;8.10;84.30;;;;;;4393295;32;20544;-76
2021/03/24 08:23:51;;;;;;;;;;;8.10;84.30;;;;;;4393334;32;20426;-76
2021/03/24 08:26:39;;;;;;;;;;;8.20;84.10;;;;;;4358577;32;43002;-76
2021/03/24 08:29:23;;;;;;;;;;;8.20;84.30;;;;;;4406518;32;20017;-76
2021/03/24 08:32:10;;;;;;;;;;;8.30;84.10;;;;;;4393758;32;20059;-76
2021/03/24 08:34:52;;;;;;;;;;;8.30;84.50;;;;;;4381317;32;20042;-76
2021/03/24 08:37:43;;;;;;;;;;;8.40;84.40;;;;;;4407451;32;20444;-76
2021/03/24 08:40:32;;;;;;;;;;;8.40;84.20;;;;;;4393574;32;20072;-76
2021/03/24 08:43:21;;;;;;;;;;;8.50;84.10;;;;;;4380784;32;20023;-76
2021/03/24 08:46:00;;;;;;;;;;;8.50;84.30;;;;;;4393644;32;20022;-76
2021/03/24 08:48:47;;;;;;;;;;;8.60;84.20;;;;;;4393247;32;20127;-76
2021/03/24 08:51:28;;;;;;;;;;;8.60;84.30;;;;;;4380932;32;20040;-76
2021/03/24 08:54:38;;;;;;;;;;;8.60;84.70;;;;;;4393849;32;20383;-76
2021/03/24 08:57:29;;;;;;;;;;;8.70;84.20;;;;;;4330263;33;20088;-76
2021/03/24 09:00:11;;;;;;;;;;;8.80;84.20;;;;;;4392621;32;19993;-78
2021/03/24 09:02:47;;;;;;;;;;;8.80;84.00;;;;;;4405746;32;41215;-77
2021/03/24 09:05:24;;;;;;;;;;;8.80;84.10;;;;;;4391366;32;44142;-77
2021/03/24 09:08:05;;;;;;;;;;;8.90;84.10;;;;;;4392776;32;20026;-77
2021/03/24 09:10:55;;;;;;;;;;;8.90;84.40;;;;;;4392304;32;20397;-77
2021/03/24 09:13:40;;;;;;;;;;;9.00;84.00;;;;;;4406705;32;20059;-77
2021/03/24 09:16:26;;;;;;;;;;;9.00;84.30;;;;;;4392815;32;19996;-77
2021/03/24 09:19:15;;;;;;;;;;;9.00;84.10;;;;;;4392506;32;20053;-76
2021/03/24 09:22:02;;;;;;;;;;;9.10;84.20;;;;;;4392970;32;19992;-77
2021/03/24 09:24:50;;;;;;;;;;;9.20;84.00;;;;;;4406659;32;20365;-77
2021/03/24 09:27:32;;;;;;;;;;;9.20;84.10;;;;;;4392194;32;20427;-77
2021/03/24 09:30:23;;;;;;;;;;;9.20;84.20;;;;;;4406760;32;20401;-76
2021/03/24 09:33:16;;;;;;;;;;;9.20;83.80;;;;;;4393148;32;20015;-77
2021/03/24 09:35:59;;;;;;;;;;;9.30;83.90;;;;;;4378009;32;20075;-77
2021/03/24 09:38:32;;;;;;;;;;;9.40;84.10;;;;;;4393106;32;20457;-77
2021/03/24 09:41:21;;;;;;;;;;;9.40;83.70;;;;;;4393081;32;20055;-77
2021/03/24 09:43:54;;;;;;;;;;;9.40;83.60;;;;;;4392566;32;20393;-77
2021/03/24 09:46:44;;;;;;;;;;;9.50;84.00;;;;;;4393372;32;20012;-77
2021/03/24 09:49:22;;;;;;;;;;;9.50;83.80;;;;;;4405142;32;43634;-77
2021/03/24 09:52:18;;;;;;;;;;;9.60;83.70;;;;;;4392548;32;20126;-77
2021/03/24 09:55:05;;;;;;;;;;;9.60;84.20;;;;;;4364140;32;40271;-77
2021/03/24 09:57:47;;;;;;;;;;;9.60;83.50;;;;;;4405297;32;41825;-77
2021/03/24 10:00:20;;;;;;;;;;;9.70;83.70;;;;;;4406379;32;20426;-77
2021/03/24 10:03:01;;;;;;;;;;;9.80;83.50;;;;;;4406344;32;20004;-77
2021/03/24 10:05:52;;;;;;;;;;;9.80;83.60;;;;;;4392986;32;20114;-77
2021/03/24 10:08:33;;;;;;;;;;;9.90;83.50;;;;;;4379957;32;19996;-77
2021/03/24 10:11:18;;;;;;;;;;;9.90;83.60;;;;;;4406073;32;20059;-77
2021/03/24 10:14:08;;;;;;;;;;;10.00;83.30;;;;;;4392050;32;32077;-77
2021/03/24 10:16:45;;;;;;;;;;;10.10;83.30;;;;;;4354823;32;43633;-77
2021/03/24 10:19:34;;;;;;;;;;;10.10;83.20;;;;;;4391745;32;24453;-77
2021/03/24 10:22:21;;;;;;;;;;;10.20;83.70;;;;;;4406555;32;20405;-77
2021/03/24 10:24:51;;;;;;;;;;;10.20;83.30;;;;;;4394750;32;27788;-77
2021/03/24 10:27:31;;;;;;;;;;;10.30;83.10;;;;;;4409191;32;20694;-77
2021/03/24 10:30:01;;;;;;;;;;;10.30;82.90;;;;;;4382592;32;20059;-77
2021/03/24 10:32:38;;;;;;;;;;;10.30;83.10;;;;;;4408109;32;29836;-77
2021/03/24 10:35:28;;;;;;;;;;;10.40;82.90;;;;;;4384329;32;20055;-77
2021/03/24 10:38:04;;;;;;;;;;;10.40;83.00;;;;;;4394982;32;19996;-77
2021/03/24 10:40:39;;;;;;;;;;;10.50;82.90;;;;;;4407869;32;32407;-77
2021/03/24 10:43:18;;;;;;;;;;;10.50;83.30;;;;;;4382687;32;20064;-77
2021/03/24 10:46:11;;;;;;;;;;;10.50;83.10;;;;;;4407680;32;44304;-77
2021/03/24 10:48:56;;;;;;;;;;;10.60;83.00;;;;;;4382271;32;20414;-78
2021/03/24 10:51:37;;;;;;;;;;;10.70;83.00;;;;;;4382044;32;20112;-77
2021/03/24 10:54:18;;;;;;;;;;;10.70;83.00;;;;;;4395225;32;20022;-77
2021/03/24 10:57:16;;;;;;;;;;;10.80;83.00;;;;;;4394748;32;20012;-77
2021/03/24 11:00:08;;;;;;;;;;;10.90;82.80;;;;;;4382030;32;20030;-78
2021/03/24 11:03:01;;;;;;;;;;;10.90;82.70;;;;;;4394791;32;20086;-78
2021/03/24 11:05:51;;;;;;;;;;;11.00;83.00;;;;;;4408768;32;20358;-77
2021/03/24 11:08:40;;;;;;;;;;;11.10;82.70;;;;;;4383048;32;20015;-77
2021/03/24 11:11:17;;;;;;;;;;;11.10;82.40;;;;;;4394657;32;20077;-77
2021/03/24 11:14:09;;;;;;;;;;;11.20;82.40;;;;;;4394833;32;20004;-77
2021/03/24 11:16:46;;;;;;;;;;;11.30;82.10;;;;;;4408351;32;19999;-77
2021/03/24 11:19:24;;;;;;;;;;;11.30;82.10;;;;;;4408377;32;20008;-78
2021/03/24 11:22:09;;;;;;;;;;;11.30;82.00;;;;;;4393170;32;40541;-77
2021/03/24 11:24:48;;;;;;;;;;;11.40;82.10;;;;;;4382040;32;19989;-77
2021/03/24 11:27:33;;;;;;;;;;;11.40;82.00;;;;;;4394722;32;20016;-77
2021/03/24 11:30:24;;;;;;;;;;;11.40;82.10;;;;;;4408462;32;20392;-77
2021/03/24 11:32:59;;;;;;;;;;;11.50;81.70;;;;;;4385132;32;20071;-77
2021/03/24 11:35:50;;;;;;;;;;;11.50;81.50;;;;;;4407769;32;20022;-77
2021/03/24 11:38:28;;;;;;;;;;;11.60;81.30;;;;;;4381453;32;20001;-77
2021/03/24 11:41:21;;;;;;;;;;;11.70;81.60;;;;;;4382039;32;20115;-77
2021/03/24 11:44:04;;;;;;;;;;;11.70;81.70;;;;;;4397866;32;20092;-77
2021/03/24 11:46:51;;;;;;;;;;;11.70;81.70;;;;;;4392910;32;42633;-77
2021/03/24 11:49:38;;;;;;;;;;;11.80;81.70;;;;;;4406662;32;44639;-77
2021/03/24 11:52:23;;;;;;;;;;;11.90;81.70;;;;;;4406901;32;43626;-78
2021/03/24 11:55:07;;;;;;;;;;;11.90;80.60;;;;;;4393706;32;20022;-77
2021/03/24 11:58:00;;;;;;;;;;;12.00;80.60;;;;;;4381247;32;20000;-77
2021/03/24 12:00:53;;;;;;;;;;;12.10;80.80;;;;;;4402211;32;19996;-77
2021/03/24 12:03:40;;;;;;;;;;;12.10;80.80;;;;;;4407000;32;20011;-77
2021/03/24 12:06:30;;;;;;;;;;;12.20;80.50;;;;;;4394369;32;20008;-77
2021/03/24 12:09:15;;;;;;;;;;;12.20;80.20;;;;;;4381474;32;20375;-79
2021/03/24 12:11:53;;;;;;;;;;;12.30;80.70;;;;;;4407523;32;20012;-77
2021/03/24 12:14:32;;;;;;;;;;;12.30;80.10;;;;;;4394134;32;20379;-78
2021/03/24 12:17:06;;;;;;;;;;;12.30;80.60;;;;;;4393697;32;20093;-77
2021/03/24 12:19:43;;;;;;;;;;;12.30;80.70;;;;;;4394129;32;20018;-78
2021/03/24 12:22:26;;;;;;;;;;;12.40;80.60;;;;;;4407429;32;20067;-77
2021/03/24 12:25:04;;;;;;;;;;;12.40;80.30;;;;;;4379360;32;45984;-77
2021/03/24 12:27:40;;;;;;;;;;;12.50;80.40;;;;;;4407062;32;20439;-77
2021/03/24 12:30:25;;;;;;;;;;;12.50;79.50;;;;;;4381038;32;20461;-77
2021/03/24 12:33:03;;;;;;;;;;;12.50;80.20;;;;;;4393255;32;20012;-77
2021/03/24 12:35:39;;;;;;;;;;;12.60;80.10;;;;;;4407053;32;20029;-77
2021/03/24 12:38:24;;;;;;;;;;;12.60;79.80;;;;;;4407178;32;20034;-77
2021/03/24 12:40:59;;;;;;;;;;;12.70;80.10;;;;;;4406873;32;20059;-77
2021/03/24 12:43:49;;;;;;;;;;;12.70;80.10;;;;;;4393468;32;20056;-77
2021/03/24 12:46:20;;;;;;;;;;;12.80;80.00;;;;;;4405993;32;43160;-77
2021/03/24 12:48:52;;;;;;;;;;;12.90;79.50;;;;;;4392412;32;38915;-77
2021/03/24 12:51:30;;;;;;;;;;;12.90;79.00;;;;;;4406594;32;20012;-77
2021/03/24 12:54:09;;;;;;;;;;;13.00;79.30;;;;;;4392999;32;20009;-77
2021/03/24 12:56:47;;;;;;;;;;;13.00;79.00;;;;;;4393124;32;20030;-77
2021/03/24 12:59:28;;;;;;;;;;;13.00;79.20;;;;;;4406838;32;20389;-77
2021/03/24 13:02:18;;;;;;;;;;;13.00;79.20;;;;;;4391997;32;44484;-78
2021/03/24 13:05:05;;;;;;;;;;;13.00;79.30;;;;;;4391936;32;33317;-77
2021/03/24 13:07:55;;;;;;;;;;;13.10;78.30;;;;;;4392734;32;19996;-77
2021/03/24 13:10:44;;;;;;;;;;;13.20;79.00;;;;;;4406505;32;20019;-77
2021/03/24 13:13:17;;;;;;;;;;;13.20;79.20;;;;;;4393165;32;20012;-77
2021/03/24 13:16:05;;;;;;;;;;;13.30;78.80;;;;;;4392914;32;20044;-77
2021/03/24 13:18:51;;;;;;;;;;;13.30;78.60;;;;;;4404875;32;43678;-77
2021/03/24 13:24:29;;;;;;;;;;;13.40;78.60;;;;;;4406715;32;20413;-77
2021/03/24 13:27:12;;;;;;;;;;;13.40;78.80;;;;;;4406652;32;20016;-77
2021/03/24 13:29:59;;;;;;;;;;;13.50;78.40;;;;;;4406340;32;20069;-77
2021/03/24 13:32:51;;;;;;;;;;;13.50;78.80;;;;;;4406732;32;20018;-77
2021/03/24 13:35:46;;;;;;;;;;;13.50;77.60;;;;;;4392267;32;20039;-77
2021/03/24 13:38:39;;;;;;;;;;;13.60;77.90;;;;;;4406144;32;20360;-77
2021/03/24 13:41:09;;;;;;;;;;;13.60;78.50;;;;;;4347103;32;20020;-77
2021/03/24 13:43:52;;;;;;;;;;;13.70;78.20;;;;;;4406457;32;20010;-77
2021/03/24 13:46:48;;;;;;;;;;;13.60;78.30;;;;;;4406555;32;20107;-77
2021/03/24 13:49:36;;;;;;;;;;;13.60;77.90;;;;;;4375891;32;30885;-77
2021/03/24 13:52:25;;;;;;;;;;;13.70;77.90;;;;;;4378693;32;42201;-77
2021/03/24 13:55:04;;;;;;;;;;;13.70;77.10;;;;;;4405119;32;36429;-77
2021/03/24 13:57:43;;;;;;;;;;;13.80;77.50;;;;;;4406249;32;43263;-77
2021/03/24 14:00:44;;;;;;;;;;;13.80;77.90;;;;;;4395535;32;20016;-77
2021/03/24 14:03:29;;;;;;;;;;;13.90;77.70;;;;;;4393781;32;24366;-77
2021/03/24 14:06:19;;;;;;;;;;;13.90;77.80;;;;;;4395800;32;20008;-77
2021/03/24 14:09:15;;;;;;;;;;;13.90;77.70;;;;;;4382721;32;20412;-77
2021/03/24 14:11:57;;;;;;;;;;;14.00;77.20;;;;;;4409305;32;20060;-77
2021/03/24 14:14:42;;;;;;;;;;;14.00;77.30;;;;;;4396111;32;20004;-77
2021/03/24 14:17:32;;;;;;;;;;;14.10;76.90;;;;;;4395353;32;20377;-77
2021/03/24 14:20:17;;;;;;;;;;;14.10;77.40;;;;;;4395064;32;20021;-77
2021/03/24 14:23:02;;;;;;;;;;;14.10;77.20;;;;;;4408973;32;20059;-77
2021/03/24 14:25:40;;;;;;;;;;;14.20;77.30;;;;;;4395677;32;20349;-77
2021/03/24 14:28:32;;;;;;;;;;;14.20;76.90;;;;;;4395214;32;20071;-77
2021/03/24 14:31:17;;;;;;;;;;;14.30;76.90;;;;;;4407841;32;41743;-77
2021/03/24 14:33:52;;;;;;;;;;;14.30;77.40;;;;;;4394634;32;20004;-77
2021/03/24 14:36:30;;;;;;;;;;;14.40;76.80;;;;;;4395427;32;20127;-77
2021/03/24 14:39:17;;;;;;;;;;;14.40;76.20;;;;;;4394803;32;20420;-78
2021/03/24 14:42:02;;;;;;;;;;;14.40;76.60;;;;;;4408971;32;20017;-77
2021/03/24 14:44:41;;;;;;;;;;;14.50;76.70;;;;;;4408346;32;20078;-77
2021/03/24 14:47:28;;;;;;;;;;;14.50;76.20;;;;;;4408794;32;20059;-77
2021/03/24 14:50:05;;;;;;;;;;;14.50;75.20;;;;;;4381304;32;42489;-77
2021/03/24 14:52:54;;;;;;;;;;;14.50;76.00;;;;;;4408509;32;20030;-77
2021/03/24 14:55:48;;;;;;;;;;;14.60;75.90;;;;;;4408010;32;19999;-77
2021/03/24 14:58:20;;;;;;;;;;;14.70;76.10;;;;;;4404270;32;43557;-77
2021/03/24 15:00:56;;;;;;;;;;;14.70;76.10;;;;;;4408495;32;20355;-77
2021/03/24 15:03:31;;;;;;;;;;;14.70;75.90;;;;;;4394701;32;20030;-77
2021/03/24 15:06:08;;;;;;;;;;;14.80;75.10;;;;;;4407359;32;39768;-77
2021/03/24 15:08:49;;;;;;;;;;;14.80;75.40;;;;;;4393954;32;20012;-77
2021/03/24 15:11:25;;;;;;;;;;;14.90;75.70;;;;;;4393201;32;40235;-77
2021/03/24 15:14:04;;;;;;;;;;;14.90;75.60;;;;;;4407596;32;31384;-77
2021/03/24 15:16:45;;;;;;;;;;;14.90;74.90;;;;;;4381612;32;20004;-77
2021/03/24 15:19:31;;;;;;;;;;;14.90;75.00;;;;;;4394929;32;20012;-77
2021/03/24 15:22:21;;;;;;;;;;;14.90;74.80;;;;;;4394992;32;20055;-77
2021/03/24 15:25:02;;;;;;;;;;;15.00;74.70;;;;;;4394704;32;20448;-78
2021/03/24 15:27:58;;;;;;;;;;;14.90;74.20;;;;;;4408421;32;20043;-77
2021/03/24 15:31:00;;;;;;;;;;;15.00;73.80;;;;;;4384896;32;20015;-77
2021/03/24 15:33:51;;;;;;;;;;;15.00;74.50;;;;;;4408443;32;20004;-77
2021/03/24 15:36:53;;;;;;;;;;;15.00;74.40;;;;;;4394399;32;20007;-77
2021/03/24 15:39:40;;;;;;;;;;;15.00;73.50;;;;;;4387285;32;20010;-77
2021/03/24 15:42:28;;;;;;;;;;;15.10;73.70;;;;;;4381775;32;20015;-77
2021/03/24 15:45:11;;;;;;;;;;;15.10;73.70;;;;;;4406935;32;30508;-77
2021/03/24 15:47:41;;;;;;;;;;;15.10;73.20;;;;;;4406678;32;43674;-77
2021/03/24 15:50:17;;;;;;;;;;;15.10;73.70;;;;;;4392759;32;43355;-77